sensor_id;sensor_type;location;lat;lon;timestamp;P1;durP1;ratioP1;P2;durP2;ratioP2
4202;SDS011;2115;51.038;7.006;2022-08-21T00:00:40;753.67;;;449.17;;
4202;SDS011;2115;51.038;7.006;2022-08-21T00:03:06;737.37;;;408.70;;
4202;SDS011;2115;51.038;7.006;2022-08-21T00:05:33;738.47;;;408.03;;
4202;SDS011;2115;51.038;7.006;2022-08-21T00:08:02;738.17;;;413.90;;
4202;SDS011;2115;51.038;7.006;2022-08-21T00:10:28;735.37;;;398.53;;
4202;SDS011;2115;51.038;7.006;2022-08-21T00:12:54;737.57;;;406.63;;
4202;SDS011;2115;51.038;7.006;2022-08-21T00:15:22;741.97;;;404.63;;
4202;SDS011;2115;51.038;7.006;2022-08-21T00:17:51;742.23;;;409.80;;
4202;SDS011;2115;51.038;7.006;2022-08-21T00:20:18;736.07;;;385.37;;
4202;SDS011;2115;51.038;7.006;2022-08-21T00:22:44;737.73;;;404.60;;
4202;SDS011;2115;51.038;7.006;2022-08-21T00:25:10;736.60;;;416.73;;
4202;SDS011;2115;51.038;7.006;2022-08-21T00:27:36;738.07;;;397.27;;
4202;SDS011;2115;51.038;7.006;2022-08-21T00:30:02;746.00;;;425.10;;
4202;SDS011;2115;51.038;7.006;2022-08-21T00:32:29;737.83;;;406.40;;
4202;SDS011;2115;51.038;7.006;2022-08-21T00:34:54;740.83;;;421.17;;
4202;SDS011;2115;51.038;7.006;2022-08-21T00:37:20;760.33;;;450.77;;
4202;SDS011;2115;51.038;7.006;2022-08-21T00:39:45;739.40;;;403.40;;
4202;SDS011;2115;51.038;7.006;2022-08-21T00:42:12;740.23;;;400.00;;
4202;SDS011;2115;51.038;7.006;2022-08-21T00:44:42;739.17;;;404.23;;
4202;SDS011;2115;51.038;7.006;2022-08-21T00:47:08;744.53;;;392.13;;
4202;SDS011;2115;51.038;7.006;2022-08-21T00:49:35;732.97;;;385.50;;
4202;SDS011;2115;51.038;7.006;2022-08-21T00:52:01;746.67;;;399.83;;
4202;SDS011;2115;51.038;7.006;2022-08-21T00:54:28;737.30;;;401.13;;
4202;SDS011;2115;51.038;7.006;2022-08-21T00:57:05;746.57;;;429.50;;
4202;SDS011;2115;51.038;7.006;2022-08-21T00:59:34;752.53;;;415.87;;
4202;SDS011;2115;51.038;7.006;2022-08-21T01:02:03;737.60;;;407.73;;
4202;SDS011;2115;51.038;7.006;2022-08-21T01:04:31;736.27;;;404.77;;
4202;SDS011;2115;51.038;7.006;2022-08-21T01:06:56;734.83;;;396.13;;
4202;SDS011;2115;51.038;7.006;2022-08-21T01:09:22;747.27;;;412.70;;
4202;SDS011;2115;51.038;7.006;2022-08-21T01:11:47;735.43;;;374.63;;
4202;SDS011;2115;51.038;7.006;2022-08-21T01:14:13;728.57;;;390.67;;
4202;SDS011;2115;51.038;7.006;2022-08-21T01:16:43;725.97;;;384.17;;
4202;SDS011;2115;51.038;7.006;2022-08-21T01:19:10;731.60;;;376.37;;
4202;SDS011;2115;51.038;7.006;2022-08-21T01:21:36;735.47;;;394.87;;
4202;SDS011;2115;51.038;7.006;2022-08-21T01:24:01;736.63;;;409.00;;
4202;SDS011;2115;51.038;7.006;2022-08-21T01:26:28;742.50;;;380.57;;
4202;SDS011;2115;51.038;7.006;2022-08-21T01:29:00;741.00;;;401.80;;
4202;SDS011;2115;51.038;7.006;2022-08-21T01:31:28;747.27;;;395.30;;
4202;SDS011;2115;51.038;7.006;2022-08-21T01:33:55;729.00;;;389.50;;
4202;SDS011;2115;51.038;7.006;2022-08-21T01:36:21;740.27;;;398.03;;
4202;SDS011;2115;51.038;7.006;2022-08-21T01:38:47;736.70;;;413.30;;
4202;SDS011;2115;51.038;7.006;2022-08-21T01:41:15;732.57;;;400.10;;
4202;SDS011;2115;51.038;7.006;2022-08-21T01:43:44;731.67;;;393.37;;
4202;SDS011;2115;51.038;7.006;2022-08-21T01:46:10;731.27;;;375.10;;
4202;SDS011;2115;51.038;7.006;2022-08-21T01:48:36;729.33;;;378.47;;
4202;SDS011;2115;51.038;7.006;2022-08-21T01:51:02;744.17;;;396.43;;
4202;SDS011;2115;51.038;7.006;2022-08-21T01:53:28;730.47;;;385.17;;
4202;SDS011;2115;51.038;7.006;2022-08-21T01:55:53;736.50;;;384.33;;
4202;SDS011;2115;51.038;7.006;2022-08-21T01:58:19;725.07;;;373.37;;
4202;SDS011;2115;51.038;7.006;2022-08-21T02:00:44;728.93;;;378.57;;
4202;SDS011;2115;51.038;7.006;2022-08-21T02:03:09;726.00;;;391.80;;
4202;SDS011;2115;51.038;7.006;2022-08-21T02:05:35;738.90;;;395.27;;
4202;SDS011;2115;51.038;7.006;2022-08-21T02:08:00;726.90;;;385.43;;
4202;SDS011;2115;51.038;7.006;2022-08-21T02:10:27;748.53;;;415.07;;
4202;SDS011;2115;51.038;7.006;2022-08-21T02:12:54;734.30;;;400.50;;
4202;SDS011;2115;51.038;7.006;2022-08-21T02:15:20;728.77;;;388.40;;
4202;SDS011;2115;51.038;7.006;2022-08-21T02:17:48;726.93;;;383.93;;
4202;SDS011;2115;51.038;7.006;2022-08-21T02:20:17;725.30;;;374.57;;
4202;SDS011;2115;51.038;7.006;2022-08-21T02:22:44;734.80;;;402.40;;
4202;SDS011;2115;51.038;7.006;2022-08-21T02:25:09;760.80;;;520.17;;
4202;SDS011;2115;51.038;7.006;2022-08-21T02:27:42;754.27;;;492.23;;
4202;SDS011;2115;51.038;7.006;2022-08-21T02:30:10;743.23;;;457.77;;
4202;SDS011;2115;51.038;7.006;2022-08-21T02:32:37;755.47;;;465.17;;
4202;SDS011;2115;51.038;7.006;2022-08-21T02:35:03;740.83;;;453.30;;
4202;SDS011;2115;51.038;7.006;2022-08-21T02:37:28;742.50;;;451.90;;
4202;SDS011;2115;51.038;7.006;2022-08-21T02:39:53;749.33;;;450.23;;
4202;SDS011;2115;51.038;7.006;2022-08-21T02:42:19;746.67;;;472.90;;
4202;SDS011;2115;51.038;7.006;2022-08-21T02:44:44;754.70;;;508.67;;
4202;SDS011;2115;51.038;7.006;2022-08-21T02:47:09;728.97;;;409.03;;
4202;SDS011;2115;51.038;7.006;2022-08-21T02:49:35;754.13;;;484.83;;
4202;SDS011;2115;51.038;7.006;2022-08-21T02:52:00;749.63;;;479.80;;
4202;SDS011;2115;51.038;7.006;2022-08-21T02:54:25;750.37;;;489.47;;
4202;SDS011;2115;51.038;7.006;2022-08-21T02:56:51;739.13;;;448.37;;
4202;SDS011;2115;51.038;7.006;2022-08-21T02:59:16;763.30;;;458.90;;
4202;SDS011;2115;51.038;7.006;2022-08-21T03:01:42;731.37;;;421.40;;
4202;SDS011;2115;51.038;7.006;2022-08-21T03:04:07;730.07;;;405.57;;
4202;SDS011;2115;51.038;7.006;2022-08-21T03:06:32;730.73;;;400.30;;
4202;SDS011;2115;51.038;7.006;2022-08-21T03:08:58;721.30;;;383.93;;
4202;SDS011;2115;51.038;7.006;2022-08-21T03:11:24;724.70;;;380.87;;
4202;SDS011;2115;51.038;7.006;2022-08-21T03:13:51;722.47;;;359.67;;
4202;SDS011;2115;51.038;7.006;2022-08-21T03:16:16;720.43;;;383.50;;
4202;SDS011;2115;51.038;7.006;2022-08-21T03:18:43;721.00;;;371.90;;
4202;SDS011;2115;51.038;7.006;2022-08-21T03:21:09;718.43;;;360.30;;
4202;SDS011;2115;51.038;7.006;2022-08-21T03:23:34;729.70;;;385.73;;
4202;SDS011;2115;51.038;7.006;2022-08-21T03:26:00;711.17;;;338.37;;
4202;SDS011;2115;51.038;7.006;2022-08-21T03:28:25;711.43;;;354.63;;
4202;SDS011;2115;51.038;7.006;2022-08-21T03:30:51;709.37;;;325.27;;
4202;SDS011;2115;51.038;7.006;2022-08-21T03:33:17;723.17;;;333.57;;
4202;SDS011;2115;51.038;7.006;2022-08-21T03:35:43;707.50;;;331.83;;
4202;SDS011;2115;51.038;7.006;2022-08-21T03:38:11;714.43;;;365.10;;
4202;SDS011;2115;51.038;7.006;2022-08-21T03:40:37;718.57;;;351.67;;
4202;SDS011;2115;51.038;7.006;2022-08-21T03:43:03;716.97;;;345.80;;
4202;SDS011;2115;51.038;7.006;2022-08-21T03:45:29;714.57;;;370.73;;
4202;SDS011;2115;51.038;7.006;2022-08-21T03:47:58;729.07;;;375.97;;
4202;SDS011;2115;51.038;7.006;2022-08-21T03:50:26;710.60;;;336.83;;
4202;SDS011;2115;51.038;7.006;2022-08-21T03:52:53;705.00;;;321.33;;
4202;SDS011;2115;51.038;7.006;2022-08-21T03:55:19;718.20;;;354.07;;
4202;SDS011;2115;51.038;7.006;2022-08-21T03:57:45;710.40;;;335.43;;
4202;SDS011;2115;51.038;7.006;2022-08-21T04:00:11;709.43;;;338.67;;
4202;SDS011;2115;51.038;7.006;2022-08-21T04:02:38;704.97;;;318.97;;
4202;SDS011;2115;51.038;7.006;2022-08-21T04:05:04;711.77;;;336.03;;
4202;SDS011;2115;51.038;7.006;2022-08-21T04:07:30;705.93;;;322.07;;
4202;SDS011;2115;51.038;7.006;2022-08-21T04:09:55;703.37;;;319.83;;
4202;SDS011;2115;51.038;7.006;2022-08-21T04:12:21;711.23;;;342.90;;
4202;SDS011;2115;51.038;7.006;2022-08-21T04:14:46;712.93;;;350.70;;
4202;SDS011;2115;51.038;7.006;2022-08-21T04:17:11;709.67;;;325.77;;
4202;SDS011;2115;51.038;7.006;2022-08-21T04:19:37;703.33;;;322.40;;
4202;SDS011;2115;51.038;7.006;2022-08-21T04:22:02;703.47;;;329.10;;
4202;SDS011;2115;51.038;7.006;2022-08-21T04:24:27;706.10;;;316.17;;
4202;SDS011;2115;51.038;7.006;2022-08-21T04:26:53;706.10;;;327.07;;
4202;SDS011;2115;51.038;7.006;2022-08-21T04:29:18;704.97;;;321.30;;
4202;SDS011;2115;51.038;7.006;2022-08-21T04:31:44;704.33;;;323.27;;
4202;SDS011;2115;51.038;7.006;2022-08-21T04:34:10;698.07;;;309.70;;
4202;SDS011;2115;51.038;7.006;2022-08-21T04:36:35;711.97;;;319.47;;
4202;SDS011;2115;51.038;7.006;2022-08-21T04:39:00;702.60;;;311.40;;
4202;SDS011;2115;51.038;7.006;2022-08-21T04:41:26;704.73;;;319.73;;
4202;SDS011;2115;51.038;7.006;2022-08-21T04:43:52;712.03;;;311.90;;
4202;SDS011;2115;51.038;7.006;2022-08-21T04:46:18;700.50;;;319.40;;
4202;SDS011;2115;51.038;7.006;2022-08-21T04:48:44;719.07;;;321.60;;
4202;SDS011;2115;51.038;7.006;2022-08-21T04:51:16;696.33;;;292.17;;
4202;SDS011;2115;51.038;7.006;2022-08-21T04:54:02;702.60;;;308.93;;
4202;SDS011;2115;51.038;7.006;2022-08-21T04:56:44;709.63;;;313.20;;
4202;SDS011;2115;51.038;7.006;2022-08-21T04:59:12;695.40;;;300.70;;
4202;SDS011;2115;51.038;7.006;2022-08-21T05:01:39;723.73;;;303.97;;
4202;SDS011;2115;51.038;7.006;2022-08-21T05:04:05;691.80;;;284.17;;
4202;SDS011;2115;51.038;7.006;2022-08-21T05:06:35;704.87;;;305.87;;
4202;SDS011;2115;51.038;7.006;2022-08-21T05:09:01;719.57;;;343.13;;
4202;SDS011;2115;51.038;7.006;2022-08-21T05:11:28;702.93;;;325.07;;
4202;SDS011;2115;51.038;7.006;2022-08-21T05:13:55;699.27;;;312.60;;
4202;SDS011;2115;51.038;7.006;2022-08-21T05:16:20;692.37;;;297.20;;
4202;SDS011;2115;51.038;7.006;2022-08-21T05:18:45;695.50;;;305.83;;
4202;SDS011;2115;51.038;7.006;2022-08-21T05:21:11;697.00;;;307.77;;
4202;SDS011;2115;51.038;7.006;2022-08-21T05:23:36;702.43;;;331.30;;
4202;SDS011;2115;51.038;7.006;2022-08-21T05:26:02;712.37;;;326.43;;
4202;SDS011;2115;51.038;7.006;2022-08-21T05:28:29;698.40;;;315.73;;
4202;SDS011;2115;51.038;7.006;2022-08-21T05:30:55;704.20;;;313.50;;
4202;SDS011;2115;51.038;7.006;2022-08-21T05:33:20;702.17;;;322.43;;
4202;SDS011;2115;51.038;7.006;2022-08-21T05:35:48;701.10;;;306.43;;
4202;SDS011;2115;51.038;7.006;2022-08-21T05:38:15;707.90;;;347.73;;
4202;SDS011;2115;51.038;7.006;2022-08-21T05:40:40;707.17;;;337.93;;
4202;SDS011;2115;51.038;7.006;2022-08-21T05:43:05;703.10;;;329.17;;
4202;SDS011;2115;51.038;7.006;2022-08-21T05:45:31;709.93;;;303.40;;
4202;SDS011;2115;51.038;7.006;2022-08-21T05:48:04;697.23;;;307.80;;
4202;SDS011;2115;51.038;7.006;2022-08-21T05:50:31;695.33;;;293.17;;
4202;SDS011;2115;51.038;7.006;2022-08-21T05:52:56;696.70;;;303.63;;
4202;SDS011;2115;51.038;7.006;2022-08-21T05:55:21;703.20;;;318.80;;
4202;SDS011;2115;51.038;7.006;2022-08-21T05:57:47;703.03;;;319.00;;
4202;SDS011;2115;51.038;7.006;2022-08-21T06:00:12;707.83;;;336.43;;
4202;SDS011;2115;51.038;7.006;2022-08-21T06:02:39;702.23;;;328.53;;
4202;SDS011;2115;51.038;7.006;2022-08-21T06:05:04;711.33;;;354.83;;
4202;SDS011;2115;51.038;7.006;2022-08-21T06:07:30;710.93;;;351.63;;
4202;SDS011;2115;51.038;7.006;2022-08-21T06:09:55;715.90;;;358.77;;
4202;SDS011;2115;51.038;7.006;2022-08-21T06:12:21;710.13;;;330.50;;
4202;SDS011;2115;51.038;7.006;2022-08-21T06:14:46;710.60;;;340.83;;
4202;SDS011;2115;51.038;7.006;2022-08-21T06:17:11;712.47;;;343.10;;
4202;SDS011;2115;51.038;7.006;2022-08-21T06:19:37;716.03;;;352.00;;
4202;SDS011;2115;51.038;7.006;2022-08-21T06:22:03;713.03;;;350.30;;
4202;SDS011;2115;51.038;7.006;2022-08-21T06:24:29;717.63;;;352.37;;
4202;SDS011;2115;51.038;7.006;2022-08-21T06:26:54;715.47;;;341.03;;
4202;SDS011;2115;51.038;7.006;2022-08-21T06:29:20;713.37;;;338.50;;
4202;SDS011;2115;51.038;7.006;2022-08-21T06:31:47;716.93;;;353.07;;
4202;SDS011;2115;51.038;7.006;2022-08-21T06:34:13;710.50;;;337.73;;
4202;SDS011;2115;51.038;7.006;2022-08-21T06:36:39;715.90;;;357.23;;
4202;SDS011;2115;51.038;7.006;2022-08-21T06:39:04;739.13;;;385.80;;
4202;SDS011;2115;51.038;7.006;2022-08-21T06:41:33;721.83;;;368.07;;
4202;SDS011;2115;51.038;7.006;2022-08-21T06:43:59;734.37;;;408.63;;
4202;SDS011;2115;51.038;7.006;2022-08-21T06:46:25;720.93;;;382.50;;
4202;SDS011;2115;51.038;7.006;2022-08-21T06:48:52;766.17;;;402.60;;
4202;SDS011;2115;51.038;7.006;2022-08-21T06:51:17;730.13;;;391.10;;
4202;SDS011;2115;51.038;7.006;2022-08-21T06:53:43;731.20;;;380.17;;
4202;SDS011;2115;51.038;7.006;2022-08-21T06:56:09;727.17;;;382.03;;
4202;SDS011;2115;51.038;7.006;2022-08-21T06:58:34;752.27;;;428.03;;
4202;SDS011;2115;51.038;7.006;2022-08-21T07:01:00;726.30;;;390.20;;
4202;SDS011;2115;51.038;7.006;2022-08-21T07:03:33;738.83;;;396.77;;
4202;SDS011;2115;51.038;7.006;2022-08-21T07:06:03;739.33;;;408.70;;
4202;SDS011;2115;51.038;7.006;2022-08-21T07:08:32;735.43;;;413.87;;
4202;SDS011;2115;51.038;7.006;2022-08-21T07:10:59;737.57;;;412.67;;
4202;SDS011;2115;51.038;7.006;2022-08-21T07:13:25;733.60;;;401.20;;
4202;SDS011;2115;51.038;7.006;2022-08-21T07:15:51;734.20;;;406.07;;
4202;SDS011;2115;51.038;7.006;2022-08-21T07:18:16;730.43;;;397.10;;
4202;SDS011;2115;51.038;7.006;2022-08-21T07:20:42;743.67;;;420.73;;
4202;SDS011;2115;51.038;7.006;2022-08-21T07:23:09;742.40;;;410.87;;
4202;SDS011;2115;51.038;7.006;2022-08-21T07:25:36;751.50;;;419.53;;
4202;SDS011;2115;51.038;7.006;2022-08-21T07:28:02;747.43;;;415.43;;
4202;SDS011;2115;51.038;7.006;2022-08-21T07:30:27;757.97;;;466.20;;
4202;SDS011;2115;51.038;7.006;2022-08-21T07:32:53;747.47;;;442.23;;
4202;SDS011;2115;51.038;7.006;2022-08-21T07:35:19;746.07;;;452.37;;
4202;SDS011;2115;51.038;7.006;2022-08-21T07:37:45;743.33;;;448.27;;
4202;SDS011;2115;51.038;7.006;2022-08-21T07:40:11;757.70;;;484.17;;
4202;SDS011;2115;51.038;7.006;2022-08-21T07:42:41;756.80;;;490.23;;
4202;SDS011;2115;51.038;7.006;2022-08-21T07:45:08;761.37;;;498.00;;
4202;SDS011;2115;51.038;7.006;2022-08-21T07:47:33;759.23;;;497.53;;
4202;SDS011;2115;51.038;7.006;2022-08-21T07:49:59;753.77;;;493.20;;
4202;SDS011;2115;51.038;7.006;2022-08-21T07:52:24;768.83;;;531.30;;
4202;SDS011;2115;51.038;7.006;2022-08-21T07:54:49;771.30;;;537.07;;
4202;SDS011;2115;51.038;7.006;2022-08-21T07:57:15;765.47;;;510.23;;
4202;SDS011;2115;51.038;7.006;2022-08-21T07:59:40;770.27;;;515.20;;
4202;SDS011;2115;51.038;7.006;2022-08-21T08:02:06;772.43;;;530.87;;
4202;SDS011;2115;51.038;7.006;2022-08-21T08:04:31;768.47;;;526.87;;
4202;SDS011;2115;51.038;7.006;2022-08-21T08:06:56;773.30;;;554.23;;
4202;SDS011;2115;51.038;7.006;2022-08-21T08:09:21;769.20;;;544.53;;
4202;SDS011;2115;51.038;7.006;2022-08-21T08:11:47;774.30;;;565.37;;
4202;SDS011;2115;51.038;7.006;2022-08-21T08:14:12;778.33;;;558.10;;
4202;SDS011;2115;51.038;7.006;2022-08-21T08:16:38;778.93;;;586.63;;
4202;SDS011;2115;51.038;7.006;2022-08-21T08:19:03;783.13;;;575.90;;
4202;SDS011;2115;51.038;7.006;2022-08-21T08:21:28;791.47;;;625.90;;
4202;SDS011;2115;51.038;7.006;2022-08-21T08:23:54;782.07;;;587.67;;
4202;SDS011;2115;51.038;7.006;2022-08-21T08:26:19;777.60;;;589.43;;
4202;SDS011;2115;51.038;7.006;2022-08-21T08:28:45;785.50;;;605.30;;
4202;SDS011;2115;51.038;7.006;2022-08-21T08:31:12;794.13;;;619.10;;
4202;SDS011;2115;51.038;7.006;2022-08-21T08:33:38;796.37;;;594.23;;
4202;SDS011;2115;51.038;7.006;2022-08-21T08:36:03;795.00;;;643.57;;
4202;SDS011;2115;51.038;7.006;2022-08-21T08:38:29;795.10;;;637.03;;
4202;SDS011;2115;51.038;7.006;2022-08-21T08:43:38;786.33;;;619.60;;
4202;SDS011;2115;51.038;7.006;2022-08-21T08:46:06;781.87;;;611.87;;
4202;SDS011;2115;51.038;7.006;2022-08-21T08:51:24;784.60;;;619.57;;
4202;SDS011;2115;51.038;7.006;2022-08-21T08:53:54;781.70;;;614.57;;
4202;SDS011;2115;51.038;7.006;2022-08-21T08:56:31;789.27;;;610.50;;
4202;SDS011;2115;51.038;7.006;2022-08-21T08:59:02;803.27;;;677.60;;
4202;SDS011;2115;51.038;7.006;2022-08-21T09:01:33;812.10;;;682.43;;
4202;SDS011;2115;51.038;7.006;2022-08-21T09:03:59;801.23;;;664.07;;
4202;SDS011;2115;51.038;7.006;2022-08-21T09:20:11;826.90;;;733.53;;
4202;SDS011;2115;51.038;7.006;2022-08-21T09:26:16;789.77;;;642.67;;
4202;SDS011;2115;51.038;7.006;2022-08-21T09:28:38;794.77;;;666.93;;
4202;SDS011;2115;51.038;7.006;2022-08-21T09:31:06;791.83;;;651.53;;
4202;SDS011;2115;51.038;7.006;2022-08-21T09:33:33;796.57;;;668.77;;
4202;SDS011;2115;51.038;7.006;2022-08-21T09:35:59;794.07;;;670.00;;
4202;SDS011;2115;51.038;7.006;2022-08-21T09:38:26;799.57;;;683.07;;
4202;SDS011;2115;51.038;7.006;2022-08-21T09:41:12;795.13;;;665.00;;
4202;SDS011;2115;51.038;7.006;2022-08-21T09:43:38;830.77;;;724.00;;
4202;SDS011;2115;51.038;7.006;2022-08-21T09:46:10;810.37;;;700.70;;
4202;SDS011;2115;51.038;7.006;2022-08-21T09:48:45;804.43;;;700.77;;
4202;SDS011;2115;51.038;7.006;2022-08-21T09:51:22;794.73;;;679.23;;
4202;SDS011;2115;51.038;7.006;2022-08-21T09:53:54;815.43;;;721.93;;
4202;SDS011;2115;51.038;7.006;2022-08-21T09:56:39;839.87;;;749.17;;
4202;SDS011;2115;51.038;7.006;2022-08-21T09:59:45;816.17;;;726.47;;
4202;SDS011;2115;51.038;7.006;2022-08-21T10:02:25;811.73;;;721.93;;
4202;SDS011;2115;51.038;7.006;2022-08-21T10:05:03;818.37;;;728.37;;
4202;SDS011;2115;51.038;7.006;2022-08-21T10:07:35;856.10;;;763.47;;
4202;SDS011;2115;51.038;7.006;2022-08-21T10:10:13;824.50;;;733.93;;
4202;SDS011;2115;51.038;7.006;2022-08-21T10:12:42;876.50;;;784.57;;
4202;SDS011;2115;51.038;7.006;2022-08-21T10:15:18;880.33;;;787.63;;
4202;SDS011;2115;51.038;7.006;2022-08-21T10:20:44;881.07;;;786.63;;
4202;SDS011;2115;51.038;7.006;2022-08-21T10:25:58;884.53;;;792.47;;
4202;SDS011;2115;51.038;7.006;2022-08-21T10:28:34;894.47;;;802.07;;
4202;SDS011;2115;51.038;7.006;2022-08-21T10:31:09;932.07;;;836.27;;
4202;SDS011;2115;51.038;7.006;2022-08-21T10:33:46;941.20;;;846.90;;
4202;SDS011;2115;51.038;7.006;2022-08-21T10:50:42;908.63;;;814.87;;
4202;SDS011;2115;51.038;7.006;2022-08-21T10:53:01;906.60;;;814.00;;
4202;SDS011;2115;51.038;7.006;2022-08-21T10:55:34;898.53;;;804.80;;
4202;SDS011;2115;51.038;7.006;2022-08-21T10:58:04;926.77;;;833.57;;
4202;SDS011;2115;51.038;7.006;2022-08-21T11:00:41;1042.50;;;939.53;;
4202;SDS011;2115;51.038;7.006;2022-08-21T11:03:13;981.40;;;885.60;;
4202;SDS011;2115;51.038;7.006;2022-08-21T11:05:43;973.60;;;879.13;;
4202;SDS011;2115;51.038;7.006;2022-08-21T11:08:58;1001.47;;;904.87;;
4202;SDS011;2115;51.038;7.006;2022-08-21T11:16:05;1027.33;;;929.27;;
4202;SDS011;2115;51.038;7.006;2022-08-21T11:18:47;1022.93;;;925.77;;
4202;SDS011;2115;51.038;7.006;2022-08-21T11:21:26;1023.70;;;925.67;;
4202;SDS011;2115;51.038;7.006;2022-08-21T11:23:58;998.27;;;903.57;;
4202;SDS011;2115;51.038;7.006;2022-08-21T11:29:37;985.30;;;891.40;;
4202;SDS011;2115;51.038;7.006;2022-08-21T11:32:20;989.53;;;895.20;;
4202;SDS011;2115;51.038;7.006;2022-08-21T11:37:41;1010.70;;;916.60;;
4202;SDS011;2115;51.038;7.006;2022-08-21T11:40:19;1021.07;;;926.50;;
4202;SDS011;2115;51.038;7.006;2022-08-21T11:45:55;1052.23;;;956.73;;
4202;SDS011;2115;51.038;7.006;2022-08-21T11:48:37;1033.93;;;939.33;;
4202;SDS011;2115;51.038;7.006;2022-08-21T11:51:13;1090.20;;;991.40;;
4202;SDS011;2115;51.038;7.006;2022-08-21T11:53:53;1077.70;;;982.10;;
4202;SDS011;2115;51.038;7.006;2022-08-21T11:56:37;640.93;;;474.10;;
4202;SDS011;2115;51.038;7.006;2022-08-21T11:59:27;629.77;;;455.47;;
4202;SDS011;2115;51.038;7.006;2022-08-21T12:02:11;647.23;;;466.60;;
4202;SDS011;2115;51.038;7.006;2022-08-21T12:04:43;853.60;;;766.93;;
4202;SDS011;2115;51.038;7.006;2022-08-21T12:07:12;1022.03;;;928.37;;
4202;SDS011;2115;51.038;7.006;2022-08-21T12:09:51;1019.63;;;926.47;;
4202;SDS011;2115;51.038;7.006;2022-08-21T12:12:33;1029.77;;;936.90;;
4202;SDS011;2115;51.038;7.006;2022-08-21T12:15:42;1042.20;;;947.50;;
4202;SDS011;2115;51.038;7.006;2022-08-21T12:17:56;1048.00;;;955.27;;
4202;SDS011;2115;51.038;7.006;2022-08-21T12:21:05;694.83;;;531.93;;
4202;SDS011;2115;51.038;7.006;2022-08-21T12:24:02;988.57;;;899.10;;
4202;SDS011;2115;51.038;7.006;2022-08-21T12:27:27;610.77;;;435.07;;
4202;SDS011;2115;51.038;7.006;2022-08-21T12:29:52;608.67;;;445.43;;
4202;SDS011;2115;51.038;7.006;2022-08-21T12:32:23;609.77;;;463.00;;
4202;SDS011;2115;51.038;7.006;2022-08-21T12:34:55;611.57;;;481.23;;
4202;SDS011;2115;51.038;7.006;2022-08-21T12:40:20;901.00;;;809.60;;
4202;SDS011;2115;51.038;7.006;2022-08-21T12:42:49;1165.67;;;999.90;;
4202;SDS011;2115;51.038;7.006;2022-08-21T12:45:26;1121.03;;;999.90;;
4202;SDS011;2115;51.038;7.006;2022-08-21T12:48:06;770.30;;;689.30;;
4202;SDS011;2115;51.038;7.006;2022-08-21T12:50:36;1129.37;;;999.90;;
4202;SDS011;2115;51.038;7.006;2022-08-21T12:53:04;1099.50;;;990.00;;
4202;SDS011;2115;51.038;7.006;2022-08-21T12:55:32;1117.70;;;997.67;;
4202;SDS011;2115;51.038;7.006;2022-08-21T12:57:59;1126.53;;;999.90;;
4202;SDS011;2115;51.038;7.006;2022-08-21T13:00:28;1103.63;;;993.20;;
4202;SDS011;2115;51.038;7.006;2022-08-21T13:02:55;1098.60;;;991.30;;
4202;SDS011;2115;51.038;7.006;2022-08-21T13:05:32;1110.63;;;998.40;;
4202;SDS011;2115;51.038;7.006;2022-08-21T13:07:59;1122.43;;;999.90;;
4202;SDS011;2115;51.038;7.006;2022-08-21T13:10:29;1106.20;;;999.90;;
4202;SDS011;2115;51.038;7.006;2022-08-21T13:12:57;1099.17;;;998.23;;
4202;SDS011;2115;51.038;7.006;2022-08-21T13:15:29;1106.73;;;999.90;;
4202;SDS011;2115;51.038;7.006;2022-08-21T13:17:56;1123.53;;;999.90;;
4202;SDS011;2115;51.038;7.006;2022-08-21T13:20:35;1157.33;;;999.90;;
4202;SDS011;2115;51.038;7.006;2022-08-21T13:23:16;1130.50;;;999.90;;
4202;SDS011;2115;51.038;7.006;2022-08-21T13:25:45;1117.07;;;999.90;;
4202;SDS011;2115;51.038;7.006;2022-08-21T13:28:11;1128.23;;;999.90;;
4202;SDS011;2115;51.038;7.006;2022-08-21T13:30:46;1125.20;;;999.90;;
4202;SDS011;2115;51.038;7.006;2022-08-21T13:33:15;1139.60;;;999.90;;
4202;SDS011;2115;51.038;7.006;2022-08-21T13:36:25;1152.77;;;999.90;;
4202;SDS011;2115;51.038;7.006;2022-08-21T13:38:34;1092.07;;;993.80;;
4202;SDS011;2115;51.038;7.006;2022-08-21T13:41:05;1141.93;;;999.90;;
4202;SDS011;2115;51.038;7.006;2022-08-21T13:43:45;1109.13;;;999.90;;
4202;SDS011;2115;51.038;7.006;2022-08-21T13:46:12;1140.13;;;999.90;;
4202;SDS011;2115;51.038;7.006;2022-08-21T13:48:38;1061.70;;;970.90;;
4202;SDS011;2115;51.038;7.006;2022-08-21T13:51:04;1134.30;;;999.90;;
4202;SDS011;2115;51.038;7.006;2022-08-21T13:55:57;1151.33;;;999.90;;
4202;SDS011;2115;51.038;7.006;2022-08-21T13:58:24;1151.50;;;999.90;;
4202;SDS011;2115;51.038;7.006;2022-08-21T14:00:51;1136.33;;;999.90;;
4202;SDS011;2115;51.038;7.006;2022-08-21T14:03:34;1139.70;;;999.90;;
4202;SDS011;2115;51.038;7.006;2022-08-21T14:06:02;1135.30;;;999.90;;
4202;SDS011;2115;51.038;7.006;2022-08-21T14:08:35;1145.83;;;999.90;;
4202;SDS011;2115;51.038;7.006;2022-08-21T14:11:06;1130.30;;;999.90;;
4202;SDS011;2115;51.038;7.006;2022-08-21T14:13:43;1133.77;;;999.90;;
4202;SDS011;2115;51.038;7.006;2022-08-21T14:21:11;1135.10;;;999.90;;
4202;SDS011;2115;51.038;7.006;2022-08-21T14:23:38;1162.20;;;999.90;;
4202;SDS011;2115;51.038;7.006;2022-08-21T14:26:04;1121.40;;;999.90;;
4202;SDS011;2115;51.038;7.006;2022-08-21T14:28:32;1121.27;;;999.90;;
4202;SDS011;2115;51.038;7.006;2022-08-21T14:31:10;1124.43;;;999.90;;
4202;SDS011;2115;51.038;7.006;2022-08-21T14:33:40;1137.43;;;999.90;;
4202;SDS011;2115;51.038;7.006;2022-08-21T14:36:06;1109.37;;;999.90;;
4202;SDS011;2115;51.038;7.006;2022-08-21T14:38:31;1132.63;;;999.90;;
4202;SDS011;2115;51.038;7.006;2022-08-21T14:40:58;1126.47;;;999.90;;
4202;SDS011;2115;51.038;7.006;2022-08-21T14:43:40;1136.60;;;999.90;;
4202;SDS011;2115;51.038;7.006;2022-08-21T14:46:05;1116.43;;;999.90;;
4202;SDS011;2115;51.038;7.006;2022-08-21T14:48:31;1138.97;;;999.90;;
4202;SDS011;2115;51.038;7.006;2022-08-21T14:50:56;1139.30;;;999.90;;
4202;SDS011;2115;51.038;7.006;2022-08-21T14:53:22;1120.77;;;999.90;;
4202;SDS011;2115;51.038;7.006;2022-08-21T14:55:47;1121.37;;;999.90;;
4202;SDS011;2115;51.038;7.006;2022-08-21T14:58:32;1132.67;;;999.90;;
4202;SDS011;2115;51.038;7.006;2022-08-21T15:00:59;1131.40;;;999.90;;
4202;SDS011;2115;51.038;7.006;2022-08-21T15:03:28;1165.07;;;999.90;;
4202;SDS011;2115;51.038;7.006;2022-08-21T15:05:53;1167.83;;;999.90;;
4202;SDS011;2115;51.038;7.006;2022-08-21T15:08:18;1155.33;;;999.90;;
4202;SDS011;2115;51.038;7.006;2022-08-21T15:10:44;1150.17;;;999.90;;
4202;SDS011;2115;51.038;7.006;2022-08-21T15:13:10;1147.37;;;999.90;;
4202;SDS011;2115;51.038;7.006;2022-08-21T15:15:39;1161.67;;;999.90;;
4202;SDS011;2115;51.038;7.006;2022-08-21T15:18:09;1150.70;;;999.90;;
4202;SDS011;2115;51.038;7.006;2022-08-21T15:20:35;1128.50;;;999.90;;
4202;SDS011;2115;51.038;7.006;2022-08-21T15:23:01;1144.07;;;999.90;;
4202;SDS011;2115;51.038;7.006;2022-08-21T15:25:26;1128.23;;;999.90;;
4202;SDS011;2115;51.038;7.006;2022-08-21T15:27:51;1129.47;;;999.90;;
4202;SDS011;2115;51.038;7.006;2022-08-21T15:30:17;1152.70;;;999.90;;
4202;SDS011;2115;51.038;7.006;2022-08-21T15:32:42;1132.37;;;999.90;;
4202;SDS011;2115;51.038;7.006;2022-08-21T15:35:08;1140.20;;;999.90;;